MSC Musica — 3EFK6 — position and weather

sailwx.info

Track history (hours):
 
Tides and Currents Weather Stations Pressure Air Temp Water Temp Dewpoint Dewpoint Depression Visibility Wind Speed Wind Dir Waves Ship Positions

MSC Musica

Last reported at 2018-Oct-14 21:51 UTC. Time now 2018-Oct-22 22:56 UTC.
Position N 43°54' E 014°15'.
Warning: this ship's position is 8 days out of date.

Length 292 m; draft 7.8 m.

Type: Ship. MMSI: 352003000.

Date/timePositionNaut miles runAvg speedWind from/ knotsBaromVisibWave heightAir tempDewpointWater temp
2018-Oct-14 21:51N 43°54' E 014°15'1321.3
2018-Oct-14 21:15N 44°04' E 014°03'421.4
2018-Oct-14 21:03N 44°08' E 013°60'121.5
2018-Oct-14 21:01N 44°09' E 013°59'1121.3
2018-Oct-14 20:29N 44°18' E 013°51'921.3
2018-Oct-14 20:03N 44°26' E 013°44'121.0
2018-Oct-14 20:00N 44°26' E 013°43'1121.2
2018-Oct-14 19:31N 44°35' E 013°35'1021.2
2018-Oct-14 19:04N 44°43' E 013°28'121.2
2018-Oct-14 19:01N 44°44' E 013°27'1121.3
2018-Oct-14 18:31N 44°53' E 013°18'1021.2
2018-Oct-14 18:04N 45°00' E 013°10'121.6
2018-Oct-14 18:01N 45°01' E 013°09'1121.1
2018-Oct-14 17:31N 45°09' E 012°58'921.1
2018-Oct-14 17:04N 45°15' E 012°48'121.1
2018-Oct-14 17:01N 45°15' E 012°47'1020.6
2018-Oct-14 16:31N 45°21' E 012°35'613.4
2018-Oct-14 16:04N 45°25' E 012°28'0 8.0
2018-Oct-14 16:00N 45°25' E 012°27'3 6.4
2018-Oct-14 15:31N 45°26' E 012°23'2 4.8
2018-Oct-14 15:03N 45°26' E 012°20'0 5.6
2018-Oct-14 15:01N 45°26' E 012°19'1 0.5
2018-Oct-14 14:02N 45°26' E 012°19'0 0.0
2018-Oct-14 13:59N 45°26' E 012°19'0 0.0
2018-Oct-14 13:29N 45°26' E 012°19'0 0.0
2018-Oct-14 13:02N 45°26' E 012°19'0 0.0
2018-Oct-14 12:56N 45°26' E 012°19'0 0.0
2018-Oct-14 12:29N 45°26' E 012°19'0 0.0
2018-Oct-14 12:02N 45°26' E 012°19'0 0.0
2018-Oct-14 11:59N 45°26' E 012°19'0 0.0
2018-Oct-14 11:28N 45°26' E 012°19'0 0.0
2018-Oct-14 11:01N 45°26' E 012°19'0 0.0
2018-Oct-14 10:58N 45°26' E 012°19'0 0.0
2018-Oct-14 10:28N 45°26' E 012°19'0 0.0
2018-Oct-14 10:01N 45°26' E 012°19'0 0.0
2018-Oct-14 09:58N 45°26' E 012°19'0 0.0
2018-Oct-14 09:28N 45°26' E 012°19'0 0.0
2018-Oct-14 08:58N 45°26' E 012°19'0 0.0
2018-Oct-14 08:30N 45°26' E 012°19'0 0.0
2018-Oct-14 08:03N 45°26' E 012°19'0 0.0
2018-Oct-14 07:58N 45°26' E 012°19'0 0.0
2018-Oct-14 07:28N 45°26' E 012°19'0 0.0
2018-Oct-14 07:02N 45°26' E 012°19'0 0.0
2018-Oct-14 07:00N 45°26' E 012°19'0 0.0
2018-Oct-14 06:30N 45°26' E 012°19'1 2.6
2018-Oct-14 06:03N 45°26' E 012°20'0 6.0
2018-Oct-14 06:00N 45°26' E 012°21'2 4.9
2018-Oct-14 05:31N 45°26' E 012°24'4 8.0
2018-Oct-14 05:04N 45°24' E 012°28'0 8.6
2018-Oct-14 05:01N 45°24' E 012°29'815.6
2018-Oct-14 04:31N 45°20' E 012°38'919.9
2018-Oct-14 04:04N 45°15' E 012°49'120.2
2018-Oct-14 04:01N 45°14' E 012°50'1020.3
2018-Oct-14 03:30N 45°08' E 013°01'920.2
2018-Oct-14 03:03N 45°02' E 013°11'120.0
2018-Oct-14 03:00N 45°01' E 013°12'1019.8
2018-Oct-14 02:31N 44°54' E 013°22'920.1
2018-Oct-14 02:03N 44°47' E 013°29'120.1
2018-Oct-14 02:00N 44°46' E 013°30'1020.4
2018-Oct-14 01:31N 44°38' E 013°38'920.3
2018-Oct-14 01:04N 44°30' E 013°46'120.3
2018-Oct-14 01:01N 44°29' E 013°47'1020.3
2018-Oct-14 00:31N 44°21' E 013°55'920.0
2018-Oct-14 00:04N 44°14' E 014°02'120.1
2018-Oct-14 00:00N 44°13' E 014°02'1020.3
2018-Oct-13 23:30N 44°05' E 014°11'  
2018-Oct-11 15:56N 37°23' E 023°40'921.5
2018-Oct-11 15:30N 37°32' E 023°43'921.1
2018-Oct-11 15:03N 37°41' E 023°42'122.1
2018-Oct-11 15:00N 37°42' E 023°41'1414.9
2018-Oct-11 14:03N 37°56' E 023°37'0 0.8
2018-Oct-11 13:59N 37°56' E 023°37'0 0.0
2018-Oct-11 13:28N 37°56' E 023°37'0 0.0
2018-Oct-11 13:02N 37°56' E 023°37'0 0.0
2018-Oct-11 12:56N 37°56' E 023°37'0 0.0
2018-Oct-11 12:29N 37°56' E 023°37'0 0.0
2018-Oct-11 12:02N 37°56' E 023°37'0 0.0
2018-Oct-11 11:58N 37°56' E 023°37'0 0.0
2018-Oct-11 11:29N 37°56' E 023°37'0 0.0
2018-Oct-11 11:02N 37°56' E 023°37'0 0.0
2018-Oct-11 10:59N 37°56' E 023°37'0 0.0
2018-Oct-11 10:29N 37°56' E 023°37'0 0.0
2018-Oct-11 10:02N 37°56' E 023°37'0 0.0
2018-Oct-11 09:59N 37°56' E 023°37'0 0.0
2018-Oct-11 09:28N 37°56' E 023°37'0 0.0
2018-Oct-11 09:02N 37°56' E 023°37'0 0.0
2018-Oct-11 08:59N 37°56' E 023°37'0 0.0
2018-Oct-11 08:30N 37°56' E 023°37'0 0.0
2018-Oct-11 08:03N 37°56' E 023°37'0 0.2
2018-Oct-11 08:00N 37°56' E 023°37'0 0.0
2018-Oct-11 07:30N 37°56' E 023°37'0 0.0
2018-Oct-11 07:03N 37°56' E 023°37'0 0.0
2018-Oct-11 06:57N 37°56' E 023°37'0 0.0
2018-Oct-11 06:30N 37°56' E 023°37'0 0.0
2018-Oct-11 06:03N 37°56' E 023°37'0 0.0
2018-Oct-11 06:00N 37°56' E 023°37'0 0.0
2018-Oct-11 05:30N 37°56' E 023°37'0 0.0
2018-Oct-11 05:03N 37°56' E 023°37'0 0.6
2018-Oct-11 05:00N 37°56' E 023°37'1 2.0
2018-Oct-11 04:30N 37°56' E 023°37'1 1.7
2018-Oct-11 04:03N 37°55' E 023°37'0 0.7
2018-Oct-11 04:00N 37°55' E 023°37'1 1.2
2018-Oct-11 03:30N 37°54' E 023°37'0 0.6
2018-Oct-11 03:03N 37°55' E 023°37'0 0.5
2018-Oct-11 03:00N 37°55' E 023°37'3 5.8
2018-Oct-11 02:30N 37°52' E 023°39'4 9.4
2018-Oct-11 02:03N 37°48' E 023°41'0 9.7
2018-Oct-11 02:00N 37°48' E 023°41'611.7
2018-Oct-11 01:30N 37°43' E 023°45'512.1
2018-Oct-11 01:03N 37°38' E 023°49'112.2
2018-Oct-11 01:00N 37°38' E 023°49'611.9
2018-Oct-11 00:30N 37°34' E 023°55'712.8
2018-Oct-10 23:58N 37°29' E 024°01'  
2018-Oct-07 20:36N 44°14' E 013°55'221.7
2018-Oct-07 20:31N 44°15' E 013°53'1021.7
2018-Oct-07 20:02N 44°24' E 013°45'121.6
2018-Oct-07 20:00N 44°24' E 013°44'1121.7
2018-Oct-07 19:30N 44°33' E 013°36'1021.7
2018-Oct-07 19:04N 44°42' E 013°29'121.5
2018-Oct-07 19:01N 44°43' E 013°28'1121.4
2018-Oct-07 18:31N 44°52' E 013°20'1021.3
2018-Oct-07 18:04N 44°59' E 013°12'121.5
2018-Oct-07 18:01N 44°60' E 013°11'1121.3
2018-Oct-07 17:31N 45°08' E 013°01'920.7
2018-Oct-07 17:04N 45°13' E 012°50'121.0
2018-Oct-07 17:01N 45°14' E 012°49'1021.0
2018-Oct-07 16:31N 45°21' E 012°37'716.4
2018-Oct-07 16:03N 45°24' E 012°28'112.1
2018-Oct-07 16:00N 45°25' E 012°27'3 6.9
2018-Oct-07 15:30N 45°26' E 012°23'2 4.9
2018-Oct-07 15:03N 45°26' E 012°19'0 6.0
2018-Oct-07 15:00N 45°26' E 012°19'0 0.4
2018-Oct-07 13:56N 45°26' E 012°19'0 0.0
2018-Oct-07 13:29N 45°26' E 012°19'0 0.0
2018-Oct-07 13:02N 45°26' E 012°19'0 0.0
2018-Oct-07 12:59N 45°26' E 012°19'0 0.0
2018-Oct-07 12:29N 45°26' E 012°19'0 0.0
2018-Oct-07 11:59N 45°26' E 012°19'0 0.0
2018-Oct-07 11:26N 45°26' E 012°19'0 0.0
2018-Oct-07 11:01N 45°26' E 012°19'0 0.0
2018-Oct-07 10:58N 45°26' E 012°19'0 0.0
2018-Oct-07 10:25N 45°26' E 012°19'0 0.0
2018-Oct-07 09:49N 45°26' E 012°19'0 0.0
2018-Oct-07 09:28N 45°26' E 012°19'0 0.0
2018-Oct-07 09:01N 45°26' E 012°19'0 0.0
2018-Oct-07 08:52N 45°26' E 012°19'0 0.0
2018-Oct-07 08:25N 45°26' E 012°19'0 0.0
2018-Oct-07 07:55N 45°26' E 012°19'0 0.0
2018-Oct-07 07:25N 45°26' E 012°19'0 0.0
2018-Oct-07 07:01N 45°26' E 012°19'0 0.0
2018-Oct-07 06:55N 45°26' E 012°19'0 0.0
2018-Oct-07 06:26N 45°26' E 012°19'1 2.5
2018-Oct-07 06:01N 45°26' E 012°20'0 5.7
2018-Oct-07 06:00N 45°26' E 012°20'2 4.8
2018-Oct-07 05:30N 45°26' E 012°23'4 8.8
2018-Oct-07 05:03N 45°24' E 012°28'111.7
2018-Oct-07 04:58N 45°24' E 012°30'918.8
2018-Oct-07 04:30N 45°19' E 012°40'920.1
2018-Oct-07 04:03N 45°14' E 012°50'120.3
2018-Oct-07 04:00N 45°13' E 012°52'1020.6
2018-Oct-07 03:30N 45°07' E 013°03'920.4
2018-Oct-07 03:03N 45°01' E 013°13'120.2
2018-Oct-07 03:00N 45°00' E 013°14'1019.8
2018-Oct-07 02:30N 44°53' E 013°23'920.0
2018-Oct-07 02:03N 44°46' E 013°31'120.1
2018-Oct-07 02:00N 44°45' E 013°32'1019.8
2018-Oct-07 01:31N 44°37' E 013°40'919.8
2018-Oct-07 01:04N 44°30' E 013°47'119.8
2018-Oct-07 01:00N 44°29' E 013°48'1019.8
2018-Oct-07 00:31N 44°21' E 013°56'919.4
2018-Oct-07 00:04N 44°13' E 014°03'  
Track history (hours):
 
Tides and Currents Weather Stations Pressure Air Temp Water Temp Dewpoint Dewpoint Depression Visibility Wind Speed Wind Dir Waves Ship Positions

MSC Musica

Last reported at 2018-Oct-14 21:51 UTC. Time now 2018-Oct-22 22:56 UTC.
Position N 43°54' E 014°15'.
Warning: this ship's position is 8 days out of date.

Length 292 m; draft 7.8 m.

Type: Ship. MMSI: 352003000.

Date/timePositionNaut miles runAvg speedWind from/ knotsBaromVisibWave heightAir tempDewpointWater temp
2018-Oct-14 21:51N 43°54' E 014°15'1321.3
2018-Oct-14 21:15N 44°04' E 014°03'421.4
2018-Oct-14 21:03N 44°08' E 013°60'121.5
2018-Oct-14 21:01N 44°09' E 013°59'1121.3
2018-Oct-14 20:29N 44°18' E 013°51'921.3
2018-Oct-14 20:03N 44°26' E 013°44'121.0
2018-Oct-14 20:00N 44°26' E 013°43'1121.2
2018-Oct-14 19:31N 44°35' E 013°35'1021.2
2018-Oct-14 19:04N 44°43' E 013°28'121.2
2018-Oct-14 19:01N 44°44' E 013°27'1121.3
2018-Oct-14 18:31N 44°53' E 013°18'1021.2
2018-Oct-14 18:04N 45°00' E 013°10'121.6
2018-Oct-14 18:01N 45°01' E 013°09'1121.1
2018-Oct-14 17:31N 45°09' E 012°58'921.1
2018-Oct-14 17:04N 45°15' E 012°48'121.1
2018-Oct-14 17:01N 45°15' E 012°47'1020.6
2018-Oct-14 16:31N 45°21' E 012°35'613.4
2018-Oct-14 16:04N 45°25' E 012°28'0 8.0
2018-Oct-14 16:00N 45°25' E 012°27'3 6.4
2018-Oct-14 15:31N 45°26' E 012°23'2 4.8
2018-Oct-14 15:03N 45°26' E 012°20'0 5.6
2018-Oct-14 15:01N 45°26' E 012°19'1 0.5
2018-Oct-14 14:02N 45°26' E 012°19'0 0.0
2018-Oct-14 13:59N 45°26' E 012°19'0 0.0
2018-Oct-14 13:29N 45°26' E 012°19'0 0.0
2018-Oct-14 13:02N 45°26' E 012°19'0 0.0
2018-Oct-14 12:56N 45°26' E 012°19'0 0.0
2018-Oct-14 12:29N 45°26' E 012°19'0 0.0
2018-Oct-14 12:02N 45°26' E 012°19'0 0.0
2018-Oct-14 11:59N 45°26' E 012°19'0 0.0
2018-Oct-14 11:28N 45°26' E 012°19'0 0.0
2018-Oct-14 11:01N 45°26' E 012°19'0 0.0
2018-Oct-14 10:58N 45°26' E 012°19'0 0.0
2018-Oct-14 10:28N 45°26' E 012°19'0 0.0
2018-Oct-14 10:01N 45°26' E 012°19'0 0.0
2018-Oct-14 09:58N 45°26' E 012°19'0 0.0
2018-Oct-14 09:28N 45°26' E 012°19'0 0.0
2018-Oct-14 08:58N 45°26' E 012°19'0 0.0
2018-Oct-14 08:30N 45°26' E 012°19'0 0.0
2018-Oct-14 08:03N 45°26' E 012°19'0 0.0
2018-Oct-14 07:58N 45°26' E 012°19'0 0.0
2018-Oct-14 07:28N 45°26' E 012°19'0 0.0
2018-Oct-14 07:02N 45°26' E 012°19'0 0.0
2018-Oct-14 07:00N 45°26' E 012°19'0 0.0
2018-Oct-14 06:30N 45°26' E 012°19'1 2.6
2018-Oct-14 06:03N 45°26' E 012°20'0 6.0
2018-Oct-14 06:00N 45°26' E 012°21'2 4.9
2018-Oct-14 05:31N 45°26' E 012°24'4 8.0
2018-Oct-14 05:04N 45°24' E 012°28'0 8.6
2018-Oct-14 05:01N 45°24' E 012°29'815.6
2018-Oct-14 04:31N 45°20' E 012°38'919.9
2018-Oct-14 04:04N 45°15' E 012°49'120.2
2018-Oct-14 04:01N 45°14' E 012°50'1020.3
2018-Oct-14 03:30N 45°08' E 013°01'920.2
2018-Oct-14 03:03N 45°02' E 013°11'120.0
2018-Oct-14 03:00N 45°01' E 013°12'1019.8
2018-Oct-14 02:31N 44°54' E 013°22'920.1
2018-Oct-14 02:03N 44°47' E 013°29'120.1
2018-Oct-14 02:00N 44°46' E 013°30'1020.4
2018-Oct-14 01:31N 44°38' E 013°38'920.3
2018-Oct-14 01:04N 44°30' E 013°46'120.3
2018-Oct-14 01:01N 44°29' E 013°47'1020.3
2018-Oct-14 00:31N 44°21' E 013°55'920.0
2018-Oct-14 00:04N 44°14' E 014°02'120.1
2018-Oct-14 00:00N 44°13' E 014°02'1020.3
2018-Oct-13 23:30N 44°05' E 014°11'  
2018-Oct-11 15:56N 37°23' E 023°40'921.5
2018-Oct-11 15:30N 37°32' E 023°43'921.1
2018-Oct-11 15:03N 37°41' E 023°42'122.1
2018-Oct-11 15:00N 37°42' E 023°41'1414.9
2018-Oct-11 14:03N 37°56' E 023°37'0 0.8
2018-Oct-11 13:59N 37°56' E 023°37'0 0.0
2018-Oct-11 13:28N 37°56' E 023°37'0 0.0
2018-Oct-11 13:02N 37°56' E 023°37'0 0.0
2018-Oct-11 12:56N 37°56' E 023°37'0 0.0
2018-Oct-11 12:29N 37°56' E 023°37'0 0.0
2018-Oct-11 12:02N 37°56' E 023°37'0 0.0
2018-Oct-11 11:58N 37°56' E 023°37'0 0.0
2018-Oct-11 11:29N 37°56' E 023°37'0 0.0
2018-Oct-11 11:02N 37°56' E 023°37'0 0.0
2018-Oct-11 10:59N 37°56' E 023°37'0 0.0
2018-Oct-11 10:29N 37°56' E 023°37'0 0.0
2018-Oct-11 10:02N 37°56' E 023°37'0 0.0
2018-Oct-11 09:59N 37°56' E 023°37'0 0.0
2018-Oct-11 09:28N 37°56' E 023°37'0 0.0
2018-Oct-11 09:02N 37°56' E 023°37'0 0.0
2018-Oct-11 08:59N 37°56' E 023°37'0 0.0
2018-Oct-11 08:30N 37°56' E 023°37'0 0.0
2018-Oct-11 08:03N 37°56' E 023°37'0 0.2
2018-Oct-11 08:00N 37°56' E 023°37'0 0.0
2018-Oct-11 07:30N 37°56' E 023°37'0 0.0
2018-Oct-11 07:03N 37°56' E 023°37'0 0.0
2018-Oct-11 06:57N 37°56' E 023°37'0 0.0
2018-Oct-11 06:30N 37°56' E 023°37'0 0.0
2018-Oct-11 06:03N 37°56' E 023°37'0 0.0
2018-Oct-11 06:00N 37°56' E 023°37'0 0.0
2018-Oct-11 05:30N 37°56' E 023°37'0 0.0
2018-Oct-11 05:03N 37°56' E 023°37'0 0.6
2018-Oct-11 05:00N 37°56' E 023°37'1 2.0
2018-Oct-11 04:30N 37°56' E 023°37'1 1.7
2018-Oct-11 04:03N 37°55' E 023°37'0 0.7
2018-Oct-11 04:00N 37°55' E 023°37'1 1.2
2018-Oct-11 03:30N 37°54' E 023°37'0 0.6
2018-Oct-11 03:03N 37°55' E 023°37'0 0.5
2018-Oct-11 03:00N 37°55' E 023°37'3 5.8
2018-Oct-11 02:30N 37°52' E 023°39'4 9.4
2018-Oct-11 02:03N 37°48' E 023°41'0 9.7
2018-Oct-11 02:00N 37°48' E 023°41'611.7
2018-Oct-11 01:30N 37°43' E 023°45'512.1
2018-Oct-11 01:03N 37°38' E 023°49'112.2
2018-Oct-11 01:00N 37°38' E 023°49'611.9
2018-Oct-11 00:30N 37°34' E 023°55'712.8
2018-Oct-10 23:58N 37°29' E 024°01'  
2018-Oct-07 20:36N 44°14' E 013°55'221.7
2018-Oct-07 20:31N 44°15' E 013°53'1021.7
2018-Oct-07 20:02N 44°24' E 013°45'121.6
2018-Oct-07 20:00N 44°24' E 013°44'1121.7
2018-Oct-07 19:30N 44°33' E 013°36'1021.7
2018-Oct-07 19:04N 44°42' E 013°29'121.5
2018-Oct-07 19:01N 44°43' E 013°28'1121.4
2018-Oct-07 18:31N 44°52' E 013°20'1021.3
2018-Oct-07 18:04N 44°59' E 013°12'121.5
2018-Oct-07 18:01N 44°60' E 013°11'1121.3
2018-Oct-07 17:31N 45°08' E 013°01'920.7
2018-Oct-07 17:04N 45°13' E 012°50'121.0
2018-Oct-07 17:01N 45°14' E 012°49'1021.0
2018-Oct-07 16:31N 45°21' E 012°37'716.4
2018-Oct-07 16:03N 45°24' E 012°28'112.1
2018-Oct-07 16:00N 45°25' E 012°27'3 6.9
2018-Oct-07 15:30N 45°26' E 012°23'2 4.9
2018-Oct-07 15:03N 45°26' E 012°19'0 6.0
2018-Oct-07 15:00N 45°26' E 012°19'0 0.4
2018-Oct-07 13:56N 45°26' E 012°19'0 0.0
2018-Oct-07 13:29N 45°26' E 012°19'0 0.0
2018-Oct-07 13:02N 45°26' E 012°19'0 0.0
2018-Oct-07 12:59N 45°26' E 012°19'0 0.0
2018-Oct-07 12:29N 45°26' E 012°19'0 0.0
2018-Oct-07 11:59N 45°26' E 012°19'0 0.0
2018-Oct-07 11:26N 45°26' E 012°19'0 0.0
2018-Oct-07 11:01N 45°26' E 012°19'0 0.0
2018-Oct-07 10:58N 45°26' E 012°19'0 0.0
2018-Oct-07 10:25N 45°26' E 012°19'0 0.0
2018-Oct-07 09:49N 45°26' E 012°19'0 0.0
2018-Oct-07 09:28N 45°26' E 012°19'0 0.0
2018-Oct-07 09:01N 45°26' E 012°19'0 0.0
2018-Oct-07 08:52N 45°26' E 012°19'0 0.0
2018-Oct-07 08:25N 45°26' E 012°19'0 0.0
2018-Oct-07 07:55N 45°26' E 012°19'0 0.0
2018-Oct-07 07:25N 45°26' E 012°19'0 0.0
2018-Oct-07 07:01N 45°26' E 012°19'0 0.0
2018-Oct-07 06:55N 45°26' E 012°19'0 0.0
2018-Oct-07 06:26N 45°26' E 012°19'1 2.5
2018-Oct-07 06:01N 45°26' E 012°20'0 5.7
2018-Oct-07 06:00N 45°26' E 012°20'2 4.8
2018-Oct-07 05:30N 45°26' E 012°23'4 8.8
2018-Oct-07 05:03N 45°24' E 012°28'111.7
2018-Oct-07 04:58N 45°24' E 012°30'918.8
2018-Oct-07 04:30N 45°19' E 012°40'920.1
2018-Oct-07 04:03N 45°14' E 012°50'120.3
2018-Oct-07 04:00N 45°13' E 012°52'1020.6
2018-Oct-07 03:30N 45°07' E 013°03'920.4
2018-Oct-07 03:03N 45°01' E 013°13'120.2
2018-Oct-07 03:00N 45°00' E 013°14'1019.8
2018-Oct-07 02:30N 44°53' E 013°23'920.0
2018-Oct-07 02:03N 44°46' E 013°31'120.1
2018-Oct-07 02:00N 44°45' E 013°32'1019.8
2018-Oct-07 01:31N 44°37' E 013°40'919.8
2018-Oct-07 01:04N 44°30' E 013°47'119.8
2018-Oct-07 01:00N 44°29' E 013°48'1019.8
2018-Oct-07 00:31N 44°21' E 013°56'919.4
2018-Oct-07 00:04N 44°13' E 014°03'  

Dump ship's entire track history